Time;durP1;ratioP1;P1;durP2;ratioP2;P2;SDS_P1;SDS_P2;PMS_P1;PMS_P2;Temp;Humidity;BMP_temperature;BMP_pressure;BME280_temperature;BME280_humidity;BME280_pressure;Samples;Min_cycle;Max_cycle;Signal;HPM_P1;HPM_P2
2023/04/03 00:00:38;;;;;;;9.07;6.78;;;;;;;2.77;76.00;102890.38;5093196;28;20020;-89
2023/04/03 00:03:03;;;;;;;10.73;6.25;;;;;;;2.65;78.12;102892.69;5089297;28;20036;-88
2023/04/03 00:05:29;;;;;;;6.85;6.00;;;;;;;2.80;77.29;102897.44;5076420;28;20035;-88
2023/04/03 00:07:54;;;;;;;9.07;6.32;;;;;;;2.83;77.29;102897.47;5090736;28;20024;-88
2023/04/03 00:10:19;;;;;;;8.25;6.50;;;;;;;2.72;76.64;102892.00;5080790;28;20056;-88
2023/04/03 00:12:45;;;;;;;8.40;6.38;;;;;;;2.69;75.59;102888.41;5091367;27;20050;-89
2023/04/03 00:15:11;;;;;;;6.60;5.63;;;;;;;2.63;73.78;102903.94;5079729;28;20031;-88
2023/04/03 00:17:36;;;;;;;8.50;6.22;;;;;;;2.65;75.57;102900.50;5086817;28;20069;-89
2023/04/03 00:20:02;;;;;;;7.63;6.82;;;;;;;2.75;74.70;102899.91;5084878;28;20017;-89
2023/04/03 00:22:28;;;;;;;7.90;6.57;;;;;;;2.66;75.09;102901.38;5086521;28;20024;-89
2023/04/03 00:24:54;;;;;;;8.18;6.03;;;;;;;2.70;75.69;102913.69;5082466;28;20030;-88
2023/04/03 00:27:20;;;;;;;7.13;6.28;;;;;;;2.64;75.93;102903.97;5087416;28;20027;-88
2023/04/03 00:29:45;;;;;;;8.15;6.25;;;;;;;2.66;75.71;102890.94;5085783;28;20471;-89
2023/04/03 00:32:10;;;;;;;6.70;6.03;;;;;;;2.85;75.87;102898.41;5083167;28;20515;-88
2023/04/03 00:34:35;;;;;;;8.00;6.65;;;;;;;3.02;73.35;102904.91;5091547;28;20117;-88
2023/04/03 00:37:01;;;;;;;7.95;6.05;;;;;;;2.73;73.84;102903.31;5083569;28;20032;-88
2023/04/03 00:39:27;;;;;;;11.35;6.72;;;;;;;2.63;74.53;102906.56;5079007;28;20024;-88
2023/04/03 00:41:52;;;;;;;7.63;6.32;;;;;;;2.61;74.30;102910.84;5079817;28;20017;-89
2023/04/03 00:44:41;;;;;;;7.28;5.82;;;;;;;2.60;73.10;102906.47;5094109;28;20051;-88
2023/04/03 00:47:10;;;;;;;7.93;6.65;;;;;;;2.59;77.22;102915.16;5078229;28;20109;-89
2023/04/03 00:49:38;;;;;;;7.90;6.38;;;;;;;2.60;75.21;102914.28;5077455;28;20029;-89
2023/04/03 00:52:07;;;;;;;8.55;6.75;;;;;;;2.41;73.59;102915.53;5092149;28;20020;-89
2023/04/03 00:54:35;;;;;;;10.05;6.93;;;;;;;2.30;75.20;102917.88;5099601;28;20039;-89
2023/04/03 00:57:00;;;;;;;8.98;6.35;;;;;;;2.16;75.80;102911.38;5082474;28;20032;-89
2023/04/03 00:59:32;;;;;;;7.25;5.75;;;;;;;2.18;74.62;102914.91;5089523;28;20035;-89
2023/04/03 01:01:58;;;;;;;6.60;5.90;;;;;;;2.10;74.49;102911.19;5081673;28;20074;-88
2023/04/03 01:04:39;;;;;;;10.68;6.32;;;;;;;2.16;74.97;102912.25;5088280;28;20040;-89
2023/04/03 01:07:16;;;;;;;9.55;6.45;;;;;;;2.26;76.46;102911.69;5079815;28;20040;-89
2023/04/03 01:09:44;;;;;;;7.28;6.45;;;;;;;2.33;76.82;102907.50;5080313;28;20449;-88
2023/04/03 01:12:40;;;;;;;7.20;6.30;;;;;;;2.51;76.34;102920.16;5077739;28;20412;-88
2023/04/03 01:15:12;;;;;;;7.45;6.20;;;;;;;2.38;76.34;102908.53;5075637;28;20499;-88
2023/04/03 01:17:44;;;;;;;6.63;5.65;;;;;;;2.39;76.46;102915.50;5083278;28;20125;-88
2023/04/03 01:20:28;;;;;;;6.57;5.63;;;;;;;2.48;74.45;102925.31;5083968;28;20039;-88
2023/04/03 01:22:59;;;;;;;7.30;5.82;;;;;;;2.27;75.81;102929.09;5078943;28;20039;-88
2023/04/03 01:25:25;;;;;;;6.75;5.53;;;;;;;2.14;75.10;102923.50;5089553;28;20514;-88
2023/04/03 01:27:51;;;;;;;5.97;5.20;;;;;;;2.12;76.69;102917.34;5086921;28;20028;-88
2023/04/03 01:30:20;;;;;;;6.85;5.50;;;;;;;2.22;77.07;102927.19;5087936;28;20043;-88
2023/04/03 01:32:45;;;;;;;7.95;5.93;;;;;;;2.37;76.80;102926.72;5090792;28;20081;-88
2023/04/03 01:35:11;;;;;;;7.38;6.47;;;;;;;2.34;76.61;102921.44;5088578;28;20024;-88
2023/04/03 01:37:37;;;;;;;7.32;5.78;;;;;;;2.31;74.86;102930.06;5086193;28;20524;-88
2023/04/03 01:40:03;;;;;;;8.35;6.20;;;;;;;2.20;75.23;102921.94;5090914;28;20028;-89
2023/04/03 01:42:29;;;;;;;6.05;5.45;;;;;;;2.44;76.30;102924.34;5088148;28;20024;-88
2023/04/03 01:44:54;;;;;;;7.70;5.97;;;;;;;2.50;76.23;102924.50;5099380;28;20020;-89
2023/04/03 01:47:20;;;;;;;8.57;6.05;;;;;;;2.49;74.79;102930.56;5086959;28;20028;-89
2023/04/03 01:49:45;;;;;;;7.43;5.90;;;;;;;2.37;75.19;102918.91;5085867;28;20028;-89
2023/04/03 01:52:10;;;;;;;9.88;5.90;;;;;;;2.30;73.86;102923.97;5095349;28;20353;-89
2023/04/03 01:54:36;;;;;;;9.57;6.35;;;;;;;1.93;73.74;102915.97;5080037;28;20028;-88
2023/04/03 01:57:01;;;;;;;6.28;5.57;;;;;;;1.74;74.99;102927.56;5091310;28;20028;-89
2023/04/03 01:59:26;;;;;;;8.23;6.53;;;;;;;1.70;77.07;102925.72;5081919;28;20115;-88
2023/04/03 02:01:52;;;;;;;8.80;5.60;;;;;;;1.71;76.69;102922.25;5083141;28;21289;-88
2023/04/03 02:04:17;;;;;;;8.52;6.65;;;;;;;1.81;77.73;102923.41;5084201;28;20044;-89
2023/04/03 02:06:43;;;;;;;7.00;5.68;;;;;;;1.80;76.84;102912.09;5092569;28;20451;-88
2023/04/03 02:09:08;;;;;;;9.70;6.65;;;;;;;1.96;78.30;102923.88;5080258;28;20032;-88
2023/04/03 02:11:33;;;;;;;7.53;5.70;;;;;;;2.14;77.27;102919.16;5082599;28;20135;-88
2023/04/03 02:13:59;;;;;;;9.98;6.25;;;;;;;2.25;77.27;102928.19;5091147;28;20486;-88
2023/04/03 02:16:24;;;;;;;7.28;6.47;;;;;;;2.15;77.26;102915.72;5087704;28;20032;-88
2023/04/03 02:18:50;;;;;;;7.70;6.40;;;;;;;2.19;75.73;102921.88;5086861;28;20266;-88
2023/04/03 02:21:15;;;;;;;8.73;6.13;;;;;;;2.24;75.28;102925.53;5094884;28;20475;-88
2023/04/03 02:23:40;;;;;;;8.43;6.35;;;;;;;2.12;75.84;102919.97;5084112;28;20024;-89
2023/04/03 02:26:12;;;;;;;7.68;5.75;;;;;;;2.25;76.00;102929.91;5076877;28;20115;-89
2023/04/03 02:28:37;;;;;;;8.77;6.20;;;;;;;2.05;75.97;102929.31;5086673;28;20073;-89
2023/04/03 02:31:04;;;;;;;8.10;6.40;;;;;;;2.19;76.34;102937.53;5094313;28;20035;-89
2023/04/03 02:33:30;;;;;;;6.78;5.53;;;;;;;2.08;77.23;102926.81;5086948;28;20027;-88
2023/04/03 02:35:56;;;;;;;9.82;6.38;;;;;;;2.02;77.27;102937.97;5085227;28;20016;-88
2023/04/03 02:38:22;;;;;;;10.02;5.80;;;;;;;2.04;77.19;102938.00;5081365;28;20028;-89
2023/04/03 02:40:48;;;;;;;6.13;5.07;;;;;;;2.00;77.06;102934.41;5080787;28;20012;-88
2023/04/03 02:43:13;;;;;;;11.73;5.95;;;;;;;1.99;78.05;102953.53;5080381;28;20028;-88
2023/04/03 02:45:39;;;;;;;7.30;5.22;;;;;;;1.94;77.73;102946.41;5085350;28;20164;-88
2023/04/03 02:48:05;;;;;;;8.32;5.47;;;;;;;2.01;78.25;102944.03;5081788;28;20042;-89
2023/04/03 02:50:30;;;;;;;6.40;5.20;;;;;;;2.03;78.16;102950.16;5086476;28;20549;-89
2023/04/03 02:52:55;;;;;;;8.68;5.53;;;;;;;2.07;77.92;102948.53;5088080;28;20031;-89
2023/04/03 02:55:20;;;;;;;8.85;5.30;;;;;;;2.07;77.91;102947.66;5096639;28;20016;-89
2023/04/03 02:57:46;;;;;;;7.82;5.03;;;;;;;2.20;77.47;102945.44;5088913;28;20040;-89
2023/04/03 03:00:11;;;;;;;5.88;5.05;;;;;;;2.18;77.71;102946.22;5089949;28;20039;-89
2023/04/03 03:02:37;;;;;;;6.57;4.88;;;;;;;2.22;77.70;102962.00;5092404;28;20023;-88
2023/04/03 03:05:02;;;;;;;6.45;4.53;;;;;;;2.20;78.12;102955.00;5090497;28;20415;-89
2023/04/03 03:07:28;;;;;;;7.25;4.57;;;;;;;2.10;77.88;102959.06;5090916;28;20522;-88
2023/04/03 03:09:53;;;;;;;10.40;5.03;;;;;;;2.00;77.88;102957.88;5089173;28;20551;-88
2023/04/03 03:12:23;;;;;;;6.18;4.60;;;;;;;1.94;77.94;102935.97;5082171;28;20036;-88
2023/04/03 03:14:48;;;;;;;6.35;4.20;;;;;;;1.92;78.53;102937.66;5085474;28;20032;-88
2023/04/03 03:17:13;;;;;;;5.15;3.97;;;;;;;1.86;78.56;102934.84;5096003;28;20450;-87
2023/04/03 03:19:39;;;;;;;7.10;4.30;;;;;;;1.97;78.70;102943.91;5088122;28;20063;-88
2023/04/03 03:22:04;;;;;;;5.95;4.25;;;;;;;1.94;78.53;102936.84;5088686;28;20079;-88
2023/04/03 03:24:30;;;;;;;7.82;3.58;;;;;;;1.94;78.49;102946.41;5092226;28;20052;-89
2023/04/03 03:26:55;;;;;;;6.05;4.30;;;;;;;1.94;78.45;102952.50;5085107;28;20031;-88
2023/04/03 03:29:21;;;;;;;4.70;3.75;;;;;;;1.88;77.99;102948.84;5090451;28;20069;-89
2023/04/03 03:31:46;;;;;;;5.65;3.65;;;;;;;1.87;78.27;102952.31;5090642;28;20030;-89
2023/04/03 03:34:11;;;;;;;5.03;3.58;;;;;;;1.93;78.89;102958.56;5090983;28;20463;-87
2023/04/03 03:36:37;;;;;;;5.20;3.90;;;;;;;2.16;78.26;102960.97;5081752;28;20081;-87
2023/04/03 03:39:02;;;;;;;6.03;3.42;;;;;;;2.21;77.12;102951.53;5088348;28;20053;-87
2023/04/03 03:41:27;;;;;;;4.82;3.88;;;;;;;2.28;77.35;102962.19;5080746;28;20022;-87
2023/04/03 03:43:53;;;;;;;4.93;3.25;;;;;;;2.22;77.29;102963.75;5091303;28;20425;-87
2023/04/03 03:46:18;;;;;;;4.28;3.50;;;;;;;2.06;77.68;102964.16;5088689;28;20372;-87
2023/04/03 03:48:44;;;;;;;6.15;3.35;;;;;;;1.84;78.31;102963.50;5086366;28;20110;-86
2023/04/03 03:51:09;;;;;;;7.65;3.28;;;;;;;1.83;79.36;102966.97;5076932;28;20513;-88
2023/04/03 03:53:34;;;;;;;8.68;3.97;;;;;;;1.89;79.39;102974.09;5087716;28;20028;-87
2023/04/03 03:56:00;;;;;;;7.57;3.70;;;;;;;2.01;78.57;102980.56;5100368;28;20033;-88
2023/04/03 03:58:25;;;;;;;6.05;3.08;;;;;;;2.07;78.54;102979.84;5080407;28;20483;-89
2023/04/03 04:00:50;;;;;;;6.32;3.40;;;;;;;1.98;77.99;102961.31;5081468;28;20028;-88
2023/04/03 04:03:16;;;;;;;5.78;3.28;;;;;;;2.00;78.20;102981.38;5081578;28;20514;-88
2023/04/03 04:05:41;;;;;;;8.25;3.55;;;;;;;2.00;78.40;102975.28;5078751;28;20032;-88
2023/04/03 04:08:06;;;;;;;5.20;3.53;;;;;;;2.03;78.34;102977.97;5088115;28;20028;-89
2023/04/03 04:10:33;;;;;;;4.85;2.97;;;;;;;2.04;77.48;102982.34;5085259;28;20488;-89
2023/04/03 04:12:58;;;;;;;6.80;3.33;;;;;;;1.97;77.08;102983.03;5078232;28;20425;-89
2023/04/03 04:15:25;;;;;;;4.72;3.38;;;;;;;1.89;77.57;102974.97;5081895;28;20019;-88
2023/04/03 04:17:50;;;;;;;4.40;3.35;;;;;;;1.95;77.17;102982.06;5081173;28;20119;-88
2023/04/03 04:20:16;;;;;;;6.22;3.50;;;;;;;1.85;77.48;102972.22;5081770;28;20104;-88
2023/04/03 04:22:41;;;;;;;7.03;3.40;;;;;;;1.79;77.90;102970.31;5080386;28;20525;-88
2023/04/03 04:25:06;;;;;;;6.45;3.50;;;;;;;1.87;78.23;102981.88;5074225;28;20027;-89
2023/04/03 04:27:32;;;;;;;6.57;3.05;;;;;;;1.86;77.73;102982.69;5081634;28;20081;-88
2023/04/03 04:29:57;;;;;;;5.95;3.03;;;;;;;1.84;78.01;102973.06;5095398;28;20027;-89
2023/04/03 04:32:22;;;;;;;5.50;3.00;;;;;;;1.84;77.93;102973.94;5088353;28;20058;-89
2023/04/03 04:34:48;;;;;;;5.50;3.45;;;;;;;1.91;78.02;102983.75;5100098;28;20492;-88
2023/04/03 04:37:13;;;;;;;4.90;3.47;;;;;;;1.86;77.89;102967.03;5078122;28;20029;-88
2023/04/03 04:39:38;;;;;;;5.57;2.47;;;;;;;1.86;78.53;102972.25;5086775;28;20032;-89
2023/04/03 04:42:03;;;;;;;4.18;2.90;;;;;;;1.88;78.28;102969.72;5086183;28;20044;-88
2023/04/03 04:44:29;;;;;;;4.30;3.05;;;;;;;1.86;77.90;102977.47;5096533;28;20024;-88
2023/04/03 04:46:54;;;;;;;4.10;2.72;;;;;;;1.88;78.21;102974.94;5076507;28;20020;-89
2023/04/03 04:49:20;;;;;;;5.47;3.03;;;;;;;2.02;77.86;102991.88;5083065;28;20353;-89
2023/04/03 04:51:45;;;;;;;3.70;2.80;;;;;;;1.97;77.93;102977.81;5098368;28;20408;-90
2023/04/03 04:54:10;;;;;;;4.30;2.58;;;;;;;1.90;78.34;102999.31;5081367;28;20043;-89
2023/04/03 04:56:35;;;;;;;3.20;2.90;;;;;;;1.97;78.54;102988.25;5084908;28;20028;-89
2023/04/03 04:59:01;;;;;;;7.47;2.88;;;;;;;1.94;78.79;102991.63;5079745;28;20487;-88
2023/04/03 05:01:26;;;;;;;6.38;2.55;;;;;;;1.99;78.61;103004.81;5102749;28;20065;-89
2023/04/03 05:03:51;;;;;;;4.60;2.97;;;;;;;1.96;78.76;102996.91;5082801;28;20019;-89
2023/04/03 05:06:17;;;;;;;5.47;3.00;;;;;;;1.95;78.70;103001.22;5078257;28;20391;-88
2023/04/03 05:08:42;;;;;;;4.88;2.67;;;;;;;1.90;78.41;102994.09;5086936;28;20024;-89
2023/04/03 05:11:07;;;;;;;4.75;2.90;;;;;;;1.85;78.40;102993.97;5078768;28;20032;-89
2023/04/03 05:13:33;;;;;;;4.95;2.65;;;;;;;1.83;78.35;103000.00;5080920;28;20035;-89
2023/04/03 05:15:58;;;;;;;4.65;2.70;;;;;;;1.88;78.61;103007.09;5089889;28;20050;-89
2023/04/03 05:18:24;;;;;;;2.78;2.28;;;;;;;1.85;79.26;103001.78;5077523;28;20054;-89
2023/04/03 05:20:50;;;;;;;7.68;3.00;;;;;;;1.95;78.64;103005.56;5079195;28;20032;-88
2023/04/03 05:23:16;;;;;;;3.50;2.22;;;;;;;1.96;78.07;103010.84;5083723;28;20035;-89
2023/04/03 05:25:43;;;;;;;5.00;2.75;;;;;;;1.90;78.65;102996.72;5075919;28;20024;-89
2023/04/03 05:28:09;;;;;;;4.63;2.65;;;;;;;1.92;78.65;103010.69;5092081;28;20028;-89
2023/04/03 05:30:34;;;;;;;5.32;3.08;;;;;;;1.86;78.22;103003.53;5089238;28;20039;-89
2023/04/03 05:33:00;;;;;;;3.72;2.60;;;;;;;2.03;78.26;103014.50;5075876;28;20034;-88
2023/04/03 05:35:25;;;;;;;3.83;2.80;;;;;;;1.90;78.24;103008.03;5080059;28;20096;-89
2023/04/03 05:37:50;;;;;;;10.07;3.22;;;;;;;1.98;78.78;103021.31;5086550;28;20035;-89
2023/04/03 05:40:16;;;;;;;3.90;2.70;;;;;;;2.07;78.88;103020.72;5077291;28;20544;-89
2023/04/03 05:42:41;;;;;;;6.55;3.38;;;;;;;2.07;78.23;103018.97;5086307;28;20024;-89
2023/04/03 05:45:07;;;;;;;4.75;3.00;;;;;;;2.13;78.21;103021.75;5084863;28;20029;-90
2023/04/03 05:47:32;;;;;;;6.60;2.88;;;;;;;2.21;78.25;103024.59;5078535;28;20038;-88
2023/04/03 05:49:57;;;;;;;6.00;2.75;;;;;;;2.27;78.17;103027.38;5077587;28;20036;-88
2023/04/03 05:52:25;;;;;;;3.00;2.40;;;;;;;2.34;77.91;103033.69;5089149;28;20040;-88
2023/04/03 05:54:51;;;;;;;10.55;2.90;;;;;;;2.29;77.79;103024.00;5091390;28;20080;-88
2023/04/03 05:57:17;;;;;;;4.53;2.53;;;;;;;2.30;77.60;103024.88;5083641;28;20101;-88
2023/04/03 05:59:43;;;;;;;3.08;2.47;;;;;;;2.37;77.76;103033.75;5080324;28;20483;-89
2023/04/03 06:02:12;;;;;;;5.85;2.78;;;;;;;2.42;77.88;103035.66;5074124;28;20052;-88
2023/04/03 06:04:38;;;;;;;4.60;3.15;;;;;;;2.44;77.55;103028.75;5082141;28;20115;-88
2023/04/03 06:07:03;;;;;;;5.72;3.03;;;;;;;2.50;77.89;103039.38;5079274;28;20123;-88
2023/04/03 06:09:29;;;;;;;5.05;2.92;;;;;;;2.54;77.45;103046.44;5084454;28;20057;-89
2023/04/03 06:11:55;;;;;;;3.65;2.67;;;;;;;2.47;77.40;103023.66;5082690;28;20102;-88
2023/04/03 06:14:21;;;;;;;6.40;2.78;;;;;;;2.59;77.50;103040.47;5097364;28;20362;-88
2023/04/03 06:16:46;;;;;;;6.43;2.95;;;;;;;2.58;76.86;103036.09;5090045;28;20111;-88
2023/04/03 06:19:12;;;;;;;4.00;2.80;;;;;;;2.68;76.20;103040.75;5090313;28;20107;-88
2023/04/03 06:21:37;;;;;;;5.03;3.35;;;;;;;2.68;76.25;103040.75;5084744;28;20069;-88
2023/04/03 06:24:04;;;;;;;4.85;3.00;;;;;;;2.75;75.92;103056.63;5100248;28;20059;-88
2023/04/03 06:26:30;;;;;;;6.93;2.88;;;;;;;2.80;76.27;103054.16;5091164;28;20028;-88
2023/04/03 06:28:55;;;;;;;4.90;2.72;;;;;;;2.84;75.84;103050.75;5106128;27;20031;-88
2023/04/03 06:31:21;;;;;;;6.00;2.80;;;;;;;2.85;75.82;103039.47;5088976;28;20032;-88
2023/04/03 06:33:46;;;;;;;4.22;2.33;;;;;;;2.90;75.45;103047.44;5085222;28;20479;-88
2023/04/03 06:36:12;;;;;;;5.85;2.50;;;;;;;3.02;75.96;103056.47;5083595;28;20119;-87
2023/04/03 06:38:38;;;;;;;5.03;2.85;;;;;;;3.09;74.37;103059.28;5088549;28;20055;-88
2023/04/03 06:41:03;;;;;;;4.28;2.95;;;;;;;3.14;74.17;103066.38;5089022;28;20526;-88
2023/04/03 06:43:30;;;;;;;5.47;2.88;;;;;;;3.14;74.63;103050.69;5084313;28;20021;-87
2023/04/03 06:45:56;;;;;;;7.43;3.08;;;;;;;3.24;75.05;103057.91;5079865;28;20430;-87
2023/04/03 06:48:21;;;;;;;5.20;3.10;;;;;;;3.27;73.71;103057.13;5085514;28;20055;-87
2023/04/03 06:50:46;;;;;;;4.85;2.60;;;;;;;3.36;74.74;103061.69;5088655;28;20065;-88
2023/04/03 06:53:12;;;;;;;5.80;2.70;;;;;;;3.40;73.97;103055.69;5089814;28;20089;-88
2023/04/03 06:55:37;;;;;;;4.60;2.72;;;;;;;3.51;73.46;103068.19;5083349;28;20031;-88
2023/04/03 06:58:03;;;;;;;6.22;2.80;;;;;;;3.68;73.76;103075.56;5094389;28;20161;-87
2023/04/03 07:00:29;;;;;;;6.13;3.00;;;;;;;3.76;74.05;103063.56;5087891;28;20150;-87
2023/04/03 07:02:56;;;;;;;2.92;2.47;;;;;;;3.92;73.84;103075.28;5094330;28;20543;-88
2023/04/03 07:05:21;;;;;;;7.60;2.95;;;;;;;3.94;72.87;103074.44;5082974;28;20032;-88
2023/04/03 07:07:47;;;;;;;6.57;2.88;;;;;;;4.06;72.32;103079.09;5094612;27;20032;-87
2023/04/03 07:10:12;;;;;;;5.70;2.88;;;;;;;4.17;73.08;103081.94;5080487;28;20572;-87
2023/04/03 07:12:38;;;;;;;6.93;2.70;;;;;;;4.23;74.03;103068.97;5083599;28;20040;-87
2023/04/03 07:15:08;;;;;;;3.47;2.47;;;;;;;4.35;71.84;103069.25;5093735;27;20135;-87
2023/04/03 07:17:33;;;;;;;5.47;2.63;;;;;;;4.45;72.83;103081.69;5090320;28;20039;-86
2023/04/03 07:19:58;;;;;;;4.90;2.45;;;;;;;4.51;69.73;103073.94;5090046;28;20477;-87
2023/04/03 07:22:23;;;;;;;5.15;2.50;;;;;;;4.69;70.65;103086.56;5083646;28;20032;-87
2023/04/03 07:24:49;;;;;;;3.78;2.65;;;;;;;4.80;71.64;103082.44;5082707;28;20474;-87
2023/04/03 07:27:14;;;;;;;4.22;2.50;;;;;;;4.94;70.61;103089.66;5075375;28;20028;-88
2023/04/03 07:29:39;;;;;;;5.97;2.60;;;;;;;5.04;70.31;103089.00;5083982;28;20571;-88
2023/04/03 07:32:06;;;;;;;4.10;2.60;;;;;;;5.17;68.32;103095.31;5099389;28;20554;-88
2023/04/03 07:34:32;;;;;;;3.67;2.55;;;;;;;5.30;69.90;103098.19;5082627;28;20383;-88
2023/04/03 07:36:58;;;;;;;6.47;1.98;;;;;;;5.33;69.93;103086.91;5087055;28;20023;-88
2023/04/03 07:39:23;;;;;;;6.00;2.47;;;;;;;5.54;70.01;103100.38;5089883;28;20046;-87
2023/04/03 07:41:48;;;;;;;4.38;2.05;;;;;;;5.58;68.85;103099.56;5094611;28;20028;-88
2023/04/03 07:44:14;;;;;;;5.72;2.35;;;;;;;5.74;69.63;103103.34;5078555;28;20037;-89
2023/04/03 07:46:40;;;;;;;3.88;2.17;;;;;;;5.85;67.30;103091.25;5080110;28;20035;-88
2023/04/03 07:49:05;;;;;;;2.42;1.63;;;;;;;5.95;66.05;103091.44;5084418;28;20024;-88
2023/04/03 07:51:31;;;;;;;8.05;2.60;;;;;;;6.17;67.98;103105.78;5084647;28;20036;-88
2023/04/03 07:53:56;;;;;;;5.25;2.55;;;;;;;6.46;68.15;103106.16;5093666;28;20028;-88
2023/04/03 07:56:22;;;;;;;4.50;2.42;;;;;;;6.69;64.18;103094.19;5088619;27;20036;-88
2023/04/03 07:58:47;;;;;;;4.43;2.15;;;;;;;7.12;63.49;103099.94;5085303;28;20028;-86
2023/04/03 08:01:13;;;;;;;3.55;1.65;;;;;;;7.44;61.33;103096.75;5095337;27;20104;-88
2023/04/03 08:03:39;;;;;;;3.38;2.00;;;;;;;7.53;59.44;103108.22;5085460;28;20062;-88
2023/04/03 08:06:07;;;;;;;3.22;2.90;;;;;;;7.82;62.03;103105.84;5107566;27;20023;-88
2023/04/03 08:08:33;;;;;;;8.27;2.55;;;;;;;8.12;62.02;103102.56;5086480;28;20021;-88
2023/04/03 08:11:02;;;;;;;2.95;1.90;;;;;;;8.38;60.83;103107.13;5090076;28;20046;-89
2023/04/03 08:13:29;;;;;;;8.45;2.10;;;;;;;8.71;59.29;103105.50;5089724;28;20023;-89
2023/04/03 08:15:56;;;;;;;6.93;1.88;;;;;;;8.94;59.04;103115.25;5085864;28;20036;-89
2023/04/03 08:18:24;;;;;;;4.97;2.38;;;;;;;9.21;57.25;103105.66;5078056;28;20024;-89
2023/04/03 08:20:49;;;;;;;2.97;1.80;;;;;;;9.36;57.22;103108.31;5084274;28;20482;-88
2023/04/03 08:23:15;;;;;;;2.95;1.90;;;;;;;9.63;55.74;103104.81;5084493;28;20020;-90
2023/04/03 08:25:41;;;;;;;4.35;1.98;;;;;;;9.90;53.82;103105.69;5080336;28;20020;-89
2023/04/03 08:28:08;;;;;;;5.95;2.42;;;;;;;10.05;56.18;103103.03;5081473;28;20056;-88
2023/04/03 08:30:34;;;;;;;2.20;1.60;;;;;;;10.31;55.31;103105.66;5079499;28;20102;-88
2023/04/03 08:33:03;;;;;;;3.85;2.05;;;;;;;10.58;53.47;103104.66;5085752;28;20032;-88
2023/04/03 08:35:28;;;;;;;4.25;1.92;;;;;;;10.70;51.93;103107.28;5082360;28;20488;-88
2023/04/03 08:37:53;;;;;;;3.50;1.85;;;;;;;11.07;51.76;103106.22;5087281;28;20015;-87
2023/04/03 08:40:19;;;;;;;3.72;1.48;;;;;;;11.28;49.32;103108.69;5098318;28;20039;-88
2023/04/03 08:42:56;;;;;;;5.10;1.80;;;;;;;11.45;49.93;103120.06;5079777;28;20463;-88
2023/04/03 08:45:57;;;;;;;2.25;1.38;;;;;;;11.69;47.98;103118.13;5085558;28;20483;-88
2023/04/03 08:48:43;;;;;;;3.47;2.03;;;;;;;12.09;48.75;103108.06;5074645;28;20036;-87
2023/04/03 08:51:17;;;;;;;3.38;1.85;;;;;;;12.21;46.14;103102.63;5080138;28;20471;-88
2023/04/03 08:54:04;;;;;;;3.88;1.50;;;;;;;12.39;44.37;103112.16;5067895;28;20063;-87
2023/04/03 08:56:31;;;;;;;2.20;1.55;;;;;;;12.57;42.12;103113.72;5082886;28;20024;-88
2023/04/03 08:59:05;;;;;;;4.55;1.65;;;;;;;12.69;43.73;103110.03;5085117;28;20038;-88
2023/04/03 09:01:36;;;;;;;2.42;1.40;;;;;;;12.77;40.76;103124.06;5089886;28;20073;-87
2023/04/03 09:04:09;;;;;;;2.10;1.25;;;;;;;13.04;41.28;103120.19;5079186;28;20035;-88
2023/04/03 09:06:37;;;;;;;3.95;1.38;;;;;;;13.23;39.36;103113.72;5093863;28;20039;-87
2023/04/03 09:09:14;;;;;;;5.07;1.70;;;;;;;13.75;42.03;103114.69;5089714;28;20024;-88
2023/04/03 09:11:46;;;;;;;3.88;1.35;;;;;;;14.21;40.74;103116.50;5090525;28;20051;-88
2023/04/03 09:14:31;;;;;;;1.70;1.25;;;;;;;14.54;39.08;103110.56;5080150;28;20032;-89
2023/04/03 09:17:00;;;;;;;1.85;1.02;;;;;;;14.85;34.74;103111.72;5079613;28;20021;-88
2023/04/03 09:19:32;;;;;;;2.22;1.38;;;;;;;14.76;34.84;103107.47;5085451;28;20141;-88
2023/04/03 09:22:02;;;;;;;3.20;1.38;;;;;;;14.74;37.56;103104.84;5079365;28;20020;-88
2023/04/03 09:24:28;;;;;;;2.83;1.50;;;;;;;15.22;34.42;103117.97;5079989;28;20024;-88
2023/04/03 09:26:59;;;;;;;3.42;1.10;;;;;;;15.49;35.04;103118.22;5088550;28;20038;-89
2023/04/03 09:29:25;;;;;;;2.28;1.10;;;;;;;15.90;34.02;103110.97;5075087;28;20475;-89
2023/04/03 09:31:56;;;;;;;2.85;1.25;;;;;;;16.15;35.05;103112.09;5080493;28;20034;-89
2023/04/03 09:34:30;;;;;;;2.38;1.17;;;;;;;16.43;32.47;103116.69;5083603;28;20081;-89
2023/04/03 09:36:57;;;;;;;1.67;1.08;;;;;;;16.74;31.01;103114.00;5083902;28;20028;-89
2023/04/03 09:39:29;;;;;;;2.05;0.95;;;;;;;16.89;28.78;103115.38;5077300;28;20104;-89
2023/04/03 09:41:55;;;;;;;1.35;0.90;;;;;;;17.05;30.99;103100.59;5078720;28;20174;-89
2023/04/03 09:44:27;;;;;;;2.00;1.10;;;;;;;17.27;28.51;103109.69;5078597;28;20028;-89
2023/04/03 09:46:52;;;;;;;1.52;1.13;;;;;;;17.64;28.53;103091.56;5081829;28;20069;-90
2023/04/03 09:49:19;;;;;;;1.20;0.82;;;;;;;18.05;28.10;103104.41;5082534;28;20024;-89
2023/04/03 09:51:45;;;;;;;1.52;0.80;;;;;;;18.03;24.36;103097.34;5075908;28;20035;-89
2023/04/03 09:54:29;;;;;;;3.08;1.00;;;;;;;18.22;25.71;103092.22;5076967;28;20487;-89
2023/04/03 09:56:56;;;;;;;1.02;0.90;;;;;;;18.59;25.28;103086.34;5076391;28;20023;-88
2023/04/03 09:59:21;;;;;;;1.02;0.77;;;;;;;18.75;25.03;103081.34;5081708;28;20016;-89
2023/04/03 10:01:59;;;;;;;0.93;0.80;;;;;;;18.27;24.53;103087.56;5078639;28;20027;-89
2023/04/03 10:04:24;;;;;;;0.80;0.68;;;;;;;18.31;23.28;103068.63;5078355;28;20039;-89
2023/04/03 10:06:54;;;;;;;0.73;0.63;;;;;;;18.48;24.89;103070.69;5086926;28;20028;-89
2023/04/03 10:09:24;;;;;;;2.28;0.70;;;;;;;18.52;21.48;103076.81;5088245;28;20081;-89
2023/04/03 10:12:14;;;;;;;0.95;0.77;;;;;;;18.65;26.37;103082.56;5092113;28;20083;-89
2023/04/03 10:14:57;;;;;;;1.38;0.70;;;;;;;19.19;22.39;103079.53;5093282;28;20031;-89
2023/04/03 10:17:42;;;;;;;0.80;0.80;;;;;;;19.62;25.46;103067.91;5087630;28;20020;-89
2023/04/03 10:20:29;;;;;;;1.30;0.88;;;;;;;20.18;23.43;103081.63;5089727;28;20024;-90
2023/04/03 10:23:20;;;;;;;2.40;0.68;;;;;;;20.37;22.35;103078.00;5086650;28;20116;-90
2023/04/03 10:25:49;;;;;;;1.00;0.73;;;;;;;20.27;21.78;103073.13;5076302;28;20259;-89
2023/04/03 10:28:23;;;;;;;1.30;0.80;;;;;;;19.59;20.14;103073.41;5083836;28;20505;-90
2023/04/03 10:31:06;;;;;;;3.03;0.70;;;;;;;19.16;20.35;103078.78;5085789;28;20035;-89
2023/04/03 10:33:55;;;;;;;0.68;0.68;;;;;;;19.32;24.58;103063.84;5087535;28;20089;-89
2023/04/03 10:36:51;;;;;;;2.15;0.77;;;;;;;19.15;20.76;103052.91;5096807;27;20024;-90
2023/04/03 10:39:58;;;;;;;0.80;0.55;;;;;;;18.66;23.02;103041.47;5090500;28;20024;-89
2023/04/03 10:42:52;;;;;;;3.20;0.75;;;;;;;19.21;23.27;103050.88;5104109;27;20050;-91
2023/04/03 10:45:27;;;;;;;0.73;0.65;;;;;;;19.53;23.15;103029.84;5092351;28;20085;-91
2023/04/03 10:48:14;;;;;;;1.25;0.68;;;;;;;19.60;23.75;103037.59;5093653;28;20098;-90
2023/04/03 10:50:58;;;;;;;0.93;0.60;;;;;;;19.61;23.81;103033.13;5101490;27;20425;-90
2023/04/03 10:53:28;;;;;;;1.73;0.55;;;;;;;19.62;22.82;103040.22;5094913;28;20028;-90
2023/04/03 10:56:10;;;;;;;1.40;0.70;;;;;;;18.94;21.69;103028.75;5081360;28;20462;-91
2023/04/03 10:58:41;;;;;;;1.27;0.80;;;;;;;18.93;23.65;103024.31;5082178;28;20058;-91
2023/04/03 11:01:13;;;;;;;1.17;0.47;;;;;;;18.55;22.38;103037.38;5096741;27;20031;-90
2023/04/03 11:03:49;;;;;;;1.85;0.80;;;;;;;18.43;22.89;103024.47;5088546;28;20020;-87
2023/04/03 11:06:18;;;;;;;0.77;0.63;;;;;;;17.87;20.83;103021.22;5103089;28;20032;-89
2023/04/03 11:08:56;;;;;;;1.48;0.60;;;;;;;17.49;23.88;103031.44;5089287;28;20157;-92
2023/04/03 11:11:27;;;;;;;0.93;0.60;;;;;;;17.67;24.79;103014.72;5084999;28;20045;-91
2023/04/03 11:13:59;;;;;;;2.15;0.70;;;;;;;17.72;26.41;103020.81;5083777;28;20020;-91
2023/04/03 11:16:29;;;;;;;0.90;0.80;;;;;;;17.90;24.09;103007.72;5086051;28;20077;-91
2023/04/03 11:19:02;;;;;;;3.83;0.88;;;;;;;17.67;24.78;103004.03;5092072;28;20046;-91
2023/04/03 11:21:40;;;;;;;1.23;0.80;;;;;;;17.54;24.34;103013.44;5077257;28;20506;-92
2023/04/03 11:24:16;;;;;;;1.58;1.13;;;;;;;17.43;26.71;102996.88;5080028;28;20180;-93
2023/04/03 11:26:42;;;;;;;2.80;0.85;;;;;;;17.37;24.51;102997.09;5081480;28;20048;-93
2023/04/03 11:29:20;;;;;;;1.45;0.85;;;;;;;17.21;24.42;102986.91;5088954;28;20031;-92
2023/04/03 11:32:06;;;;;;;2.60;0.98;;;;;;;17.41;23.56;102999.59;5089498;28;20084;-91
2023/04/03 11:34:40;;;;;;;1.63;0.80;;;;;;;17.67;24.96;102996.00;5085179;28;20483;-91
2023/04/03 11:37:15;;;;;;;1.55;0.75;;;;;;;17.79;25.27;102994.72;5099919;28;20367;-91